sensor_id;sensor_type;location;lat;lon;timestamp;P1;durP1;ratioP1;P2;durP2;ratioP2
36189;SDS011;22232;50.914;13.858;2023-04-03T00:01:16;6.85;;;1.70;;
36189;SDS011;22232;50.914;13.858;2023-04-03T00:03:44;5.88;;;1.95;;
36189;SDS011;22232;50.914;13.858;2023-04-03T00:06:12;5.57;;;2.05;;
36189;SDS011;22232;50.914;13.858;2023-04-03T00:08:40;8.73;;;2.10;;
36189;SDS011;22232;50.914;13.858;2023-04-03T00:11:08;8.70;;;1.85;;
36189;SDS011;22232;50.914;13.858;2023-04-03T00:13:36;5.65;;;1.50;;
36189;SDS011;22232;50.914;13.858;2023-04-03T00:16:06;3.05;;;1.40;;
36189;SDS011;22232;50.914;13.858;2023-04-03T00:18:34;4.28;;;1.65;;
36189;SDS011;22232;50.914;13.858;2023-04-03T00:21:03;6.68;;;2.08;;
36189;SDS011;22232;50.914;13.858;2023-04-03T00:23:31;5.18;;;1.63;;
36189;SDS011;22232;50.914;13.858;2023-04-03T00:25:59;6.70;;;1.98;;
36189;SDS011;22232;50.914;13.858;2023-04-03T00:28:26;4.75;;;1.73;;
36189;SDS011;22232;50.914;13.858;2023-04-03T00:30:54;4.00;;;1.52;;
36189;SDS011;22232;50.914;13.858;2023-04-03T00:33:22;6.13;;;1.83;;
36189;SDS011;22232;50.914;13.858;2023-04-03T00:35:50;8.23;;;2.17;;
36189;SDS011;22232;50.914;13.858;2023-04-03T00:38:18;5.32;;;1.83;;
36189;SDS011;22232;50.914;13.858;2023-04-03T00:40:47;7.53;;;1.73;;
36189;SDS011;22232;50.914;13.858;2023-04-03T00:43:20;6.00;;;2.00;;
36189;SDS011;22232;50.914;13.858;2023-04-03T00:45:53;8.85;;;2.20;;
36189;SDS011;22232;50.914;13.858;2023-04-03T00:48:23;5.50;;;1.48;;
36189;SDS011;22232;50.914;13.858;2023-04-03T00:50:56;5.90;;;1.75;;
36189;SDS011;22232;50.914;13.858;2023-04-03T00:53:26;6.10;;;2.08;;
36189;SDS011;22232;50.914;13.858;2023-04-03T00:56:08;5.80;;;1.77;;
36189;SDS011;22232;50.914;13.858;2023-04-03T00:58:41;7.32;;;2.38;;
36189;SDS011;22232;50.914;13.858;2023-04-03T01:01:16;3.53;;;2.05;;
36189;SDS011;22232;50.914;13.858;2023-04-03T01:03:49;9.50;;;2.35;;
36189;SDS011;22232;50.914;13.858;2023-04-03T01:06:19;4.30;;;2.00;;
36189;SDS011;22232;50.914;13.858;2023-04-03T01:08:51;9.60;;;2.08;;
36189;SDS011;22232;50.914;13.858;2023-04-03T01:11:20;5.97;;;1.95;;
36189;SDS011;22232;50.914;13.858;2023-04-03T01:13:48;8.15;;;1.50;;
36189;SDS011;22232;50.914;13.858;2023-04-03T01:16:16;7.10;;;2.10;;
36189;SDS011;22232;50.914;13.858;2023-04-03T01:18:44;7.80;;;2.17;;
36189;SDS011;22232;50.914;13.858;2023-04-03T01:24:21;4.10;;;1.60;;
36189;SDS011;22232;50.914;13.858;2023-04-03T01:27:06;7.35;;;1.98;;
36189;SDS011;22232;50.914;13.858;2023-04-03T01:29:36;5.63;;;2.22;;
36189;SDS011;22232;50.914;13.858;2023-04-03T01:32:04;5.82;;;1.98;;
36189;SDS011;22232;50.914;13.858;2023-04-03T01:34:32;6.88;;;1.98;;
36189;SDS011;22232;50.914;13.858;2023-04-03T01:37:00;4.47;;;1.85;;
36189;SDS011;22232;50.914;13.858;2023-04-03T01:39:28;5.50;;;1.95;;
36189;SDS011;22232;50.914;13.858;2023-04-03T01:41:55;5.28;;;1.85;;
36189;SDS011;22232;50.914;13.858;2023-04-03T01:44:29;7.75;;;1.80;;
36189;SDS011;22232;50.914;13.858;2023-04-03T01:46:57;7.68;;;1.70;;
36189;SDS011;22232;50.914;13.858;2023-04-03T01:49:26;5.72;;;1.95;;
36189;SDS011;22232;50.914;13.858;2023-04-03T01:51:55;6.10;;;1.92;;
36189;SDS011;22232;50.914;13.858;2023-04-03T01:54:22;6.65;;;1.92;;
36189;SDS011;22232;50.914;13.858;2023-04-03T01:56:50;8.38;;;2.60;;
36189;SDS011;22232;50.914;13.858;2023-04-03T01:59:20;5.85;;;1.92;;
36189;SDS011;22232;50.914;13.858;2023-04-03T02:01:48;7.40;;;1.92;;
36189;SDS011;22232;50.914;13.858;2023-04-03T02:04:15;6.28;;;2.10;;
36189;SDS011;22232;50.914;13.858;2023-04-03T02:06:43;5.03;;;2.30;;
36189;SDS011;22232;50.914;13.858;2023-04-03T02:09:10;9.00;;;2.28;;
36189;SDS011;22232;50.914;13.858;2023-04-03T02:11:38;6.13;;;2.10;;
36189;SDS011;22232;50.914;13.858;2023-04-03T02:14:06;6.45;;;2.22;;
36189;SDS011;22232;50.914;13.858;2023-04-03T02:16:33;9.02;;;2.30;;
36189;SDS011;22232;50.914;13.858;2023-04-03T02:19:01;9.13;;;2.15;;
36189;SDS011;22232;50.914;13.858;2023-04-03T02:21:30;6.07;;;2.22;;
36189;SDS011;22232;50.914;13.858;2023-04-03T02:23:58;6.30;;;1.85;;
36189;SDS011;22232;50.914;13.858;2023-04-03T02:26:25;6.57;;;2.20;;
36189;SDS011;22232;50.914;13.858;2023-04-03T02:28:53;7.18;;;2.20;;
36189;SDS011;22232;50.914;13.858;2023-04-03T02:31:21;4.50;;;1.60;;
36189;SDS011;22232;50.914;13.858;2023-04-03T02:33:49;6.47;;;2.20;;
36189;SDS011;22232;50.914;13.858;2023-04-03T02:36:17;5.80;;;1.60;;
36189;SDS011;22232;50.914;13.858;2023-04-03T02:41:18;7.88;;;1.77;;
36189;SDS011;22232;50.914;13.858;2023-04-03T02:43:46;3.05;;;1.67;;
36189;SDS011;22232;50.914;13.858;2023-04-03T02:46:15;6.45;;;2.03;;
36189;SDS011;22232;50.914;13.858;2023-04-03T02:48:43;8.52;;;2.05;;
36189;SDS011;22232;50.914;13.858;2023-04-03T02:51:10;6.90;;;1.88;;
36189;SDS011;22232;50.914;13.858;2023-04-03T02:53:38;9.50;;;1.85;;
36189;SDS011;22232;50.914;13.858;2023-04-03T02:56:11;8.95;;;1.92;;
36189;SDS011;22232;50.914;13.858;2023-04-03T02:58:39;6.63;;;1.95;;
36189;SDS011;22232;50.914;13.858;2023-04-03T03:01:08;6.40;;;2.30;;
36189;SDS011;22232;50.914;13.858;2023-04-03T03:03:36;7.68;;;1.92;;
36189;SDS011;22232;50.914;13.858;2023-04-03T03:06:08;8.38;;;2.45;;
36189;SDS011;22232;50.914;13.858;2023-04-03T03:08:39;3.47;;;2.00;;
36189;SDS011;22232;50.914;13.858;2023-04-03T03:11:07;5.82;;;1.73;;
36189;SDS011;22232;50.914;13.858;2023-04-03T03:13:35;7.13;;;1.90;;
36189;SDS011;22232;50.914;13.858;2023-04-03T03:16:03;5.57;;;1.92;;
36189;SDS011;22232;50.914;13.858;2023-04-03T03:18:31;7.18;;;2.20;;
36189;SDS011;22232;50.914;13.858;2023-04-03T03:20:59;5.80;;;2.00;;
36189;SDS011;22232;50.914;13.858;2023-04-03T03:23:28;8.25;;;2.55;;
36189;SDS011;22232;50.914;13.858;2023-04-03T03:26:15;7.18;;;2.08;;
36189;SDS011;22232;50.914;13.858;2023-04-03T03:28:42;3.45;;;1.65;;
36189;SDS011;22232;50.914;13.858;2023-04-03T03:31:11;6.90;;;1.80;;
36189;SDS011;22232;50.914;13.858;2023-04-03T03:33:40;5.82;;;2.15;;
36189;SDS011;22232;50.914;13.858;2023-04-03T03:36:08;9.68;;;2.50;;
36189;SDS011;22232;50.914;13.858;2023-04-03T03:38:36;7.63;;;1.98;;
36189;SDS011;22232;50.914;13.858;2023-04-03T03:41:04;4.85;;;2.03;;
36189;SDS011;22232;50.914;13.858;2023-04-03T03:43:33;6.47;;;2.00;;
36189;SDS011;22232;50.914;13.858;2023-04-03T03:46:02;6.03;;;2.13;;
36189;SDS011;22232;50.914;13.858;2023-04-03T03:48:30;8.27;;;2.15;;
36189;SDS011;22232;50.914;13.858;2023-04-03T03:50:58;5.75;;;1.75;;
36189;SDS011;22232;50.914;13.858;2023-04-03T03:53:30;4.68;;;1.70;;
36189;SDS011;22232;50.914;13.858;2023-04-03T03:56:03;5.73;;;1.97;;
36189;SDS011;22232;50.914;13.858;2023-04-03T03:58:31;9.40;;;2.75;;
36189;SDS011;22232;50.914;13.858;2023-04-03T04:01:00;5.35;;;2.30;;
36189;SDS011;22232;50.914;13.858;2023-04-03T04:03:30;6.22;;;2.25;;
36189;SDS011;22232;50.914;13.858;2023-04-03T04:05:58;5.38;;;2.13;;
36189;SDS011;22232;50.914;13.858;2023-04-03T04:08:25;5.72;;;1.98;;
36189;SDS011;22232;50.914;13.858;2023-04-03T04:10:53;5.30;;;1.88;;
36189;SDS011;22232;50.914;13.858;2023-04-03T04:13:22;7.25;;;2.35;;
36189;SDS011;22232;50.914;13.858;2023-04-03T04:15:50;4.50;;;1.95;;
36189;SDS011;22232;50.914;13.858;2023-04-03T04:18:18;9.50;;;2.90;;
36189;SDS011;22232;50.914;13.858;2023-04-03T04:20:48;7.80;;;2.78;;
36189;SDS011;22232;50.914;13.858;2023-04-03T04:23:17;8.32;;;2.42;;
36189;SDS011;22232;50.914;13.858;2023-04-03T04:25:47;7.72;;;2.10;;
36189;SDS011;22232;50.914;13.858;2023-04-03T04:28:16;6.10;;;2.10;;
36189;SDS011;22232;50.914;13.858;2023-04-03T04:30:46;5.28;;;2.17;;
36189;SDS011;22232;50.914;13.858;2023-04-03T04:33:18;9.40;;;2.08;;
36189;SDS011;22232;50.914;13.858;2023-04-03T04:35:46;9.00;;;2.33;;
36189;SDS011;22232;50.914;13.858;2023-04-03T04:38:16;5.65;;;1.90;;
36189;SDS011;22232;50.914;13.858;2023-04-03T04:40:44;5.28;;;2.13;;
36189;SDS011;22232;50.914;13.858;2023-04-03T04:43:12;10.52;;;2.17;;
36189;SDS011;22232;50.914;13.858;2023-04-03T04:45:43;9.65;;;2.47;;
36189;SDS011;22232;50.914;13.858;2023-04-03T04:48:11;6.97;;;2.53;;
36189;SDS011;22232;50.914;13.858;2023-04-03T04:50:38;9.00;;;1.83;;
36189;SDS011;22232;50.914;13.858;2023-04-03T04:53:06;8.40;;;2.55;;
36189;SDS011;22232;50.914;13.858;2023-04-03T04:55:35;7.07;;;2.03;;
36189;SDS011;22232;50.914;13.858;2023-04-03T04:58:03;11.30;;;2.00;;
36189;SDS011;22232;50.914;13.858;2023-04-03T05:00:31;7.90;;;2.08;;
36189;SDS011;22232;50.914;13.858;2023-04-03T05:02:59;12.30;;;2.60;;
36189;SDS011;22232;50.914;13.858;2023-04-03T05:05:26;6.55;;;2.30;;
36189;SDS011;22232;50.914;13.858;2023-04-03T05:07:54;9.98;;;1.95;;
36189;SDS011;22232;50.914;13.858;2023-04-03T05:10:22;5.30;;;1.90;;
36189;SDS011;22232;50.914;13.858;2023-04-03T05:12:49;7.07;;;2.20;;
36189;SDS011;22232;50.914;13.858;2023-04-03T05:15:17;12.48;;;2.63;;
36189;SDS011;22232;50.914;13.858;2023-04-03T05:17:45;6.63;;;2.45;;
36189;SDS011;22232;50.914;13.858;2023-04-03T05:20:14;9.65;;;2.65;;
36189;SDS011;22232;50.914;13.858;2023-04-03T05:22:44;8.82;;;2.20;;
36189;SDS011;22232;50.914;13.858;2023-04-03T05:25:13;9.82;;;2.22;;
36189;SDS011;22232;50.914;13.858;2023-04-03T05:27:43;10.35;;;2.60;;
36189;SDS011;22232;50.914;13.858;2023-04-03T05:30:11;9.32;;;3.10;;
36189;SDS011;22232;50.914;13.858;2023-04-03T05:32:40;11.68;;;2.47;;
36189;SDS011;22232;50.914;13.858;2023-04-03T05:35:16;9.63;;;2.83;;
36189;SDS011;22232;50.914;13.858;2023-04-03T05:37:46;8.35;;;2.60;;
36189;SDS011;22232;50.914;13.858;2023-04-03T05:40:15;9.15;;;3.00;;
36189;SDS011;22232;50.914;13.858;2023-04-03T05:42:47;11.85;;;3.00;;
36189;SDS011;22232;50.914;13.858;2023-04-03T05:45:16;17.20;;;3.30;;
36189;SDS011;22232;50.914;13.858;2023-04-03T05:47:44;13.25;;;2.97;;
36189;SDS011;22232;50.914;13.858;2023-04-03T05:50:11;9.63;;;3.05;;
36189;SDS011;22232;50.914;13.858;2023-04-03T05:52:40;8.10;;;3.08;;
36189;SDS011;22232;50.914;13.858;2023-04-03T05:55:11;10.15;;;2.85;;
36189;SDS011;22232;50.914;13.858;2023-04-03T05:57:39;9.23;;;3.22;;
36189;SDS011;22232;50.914;13.858;2023-04-03T06:00:07;12.35;;;3.53;;
36189;SDS011;22232;50.914;13.858;2023-04-03T06:02:49;10.48;;;3.50;;
36189;SDS011;22232;50.914;13.858;2023-04-03T06:05:21;10.73;;;3.42;;
36189;SDS011;22232;50.914;13.858;2023-04-03T06:07:50;10.88;;;3.25;;
36189;SDS011;22232;50.914;13.858;2023-04-03T06:10:17;9.73;;;3.40;;
36189;SDS011;22232;50.914;13.858;2023-04-03T06:12:45;15.20;;;3.30;;
36189;SDS011;22232;50.914;13.858;2023-04-03T06:15:13;11.15;;;2.63;;
36189;SDS011;22232;50.914;13.858;2023-04-03T06:17:40;12.48;;;3.60;;
36189;SDS011;22232;50.914;13.858;2023-04-03T06:20:08;7.53;;;2.90;;
36189;SDS011;22232;50.914;13.858;2023-04-03T06:22:37;9.40;;;3.60;;
36189;SDS011;22232;50.914;13.858;2023-04-03T06:25:05;12.77;;;3.22;;
36189;SDS011;22232;50.914;13.858;2023-04-03T06:27:33;12.80;;;3.13;;
36189;SDS011;22232;50.914;13.858;2023-04-03T06:30:00;9.38;;;3.25;;
36189;SDS011;22232;50.914;13.858;2023-04-03T06:32:28;7.93;;;3.42;;
36189;SDS011;22232;50.914;13.858;2023-04-03T06:34:55;7.50;;;2.83;;
36189;SDS011;22232;50.914;13.858;2023-04-03T06:37:24;8.10;;;3.42;;
36189;SDS011;22232;50.914;13.858;2023-04-03T06:39:59;11.43;;;3.35;;
36189;SDS011;22232;50.914;13.858;2023-04-03T06:42:30;10.13;;;3.33;;
36189;SDS011;22232;50.914;13.858;2023-04-03T06:45:05;10.10;;;3.42;;
36189;SDS011;22232;50.914;13.858;2023-04-03T06:47:34;10.32;;;3.35;;
36189;SDS011;22232;50.914;13.858;2023-04-03T06:50:02;10.85;;;3.42;;
36189;SDS011;22232;50.914;13.858;2023-04-03T06:52:30;10.05;;;3.35;;
36189;SDS011;22232;50.914;13.858;2023-04-03T06:54:57;13.73;;;3.63;;
36189;SDS011;22232;50.914;13.858;2023-04-03T06:57:26;11.05;;;3.40;;
36189;SDS011;22232;50.914;13.858;2023-04-03T06:59:54;11.45;;;3.25;;
36189;SDS011;22232;50.914;13.858;2023-04-03T07:02:22;7.40;;;3.58;;
36189;SDS011;22232;50.914;13.858;2023-04-03T07:04:49;12.52;;;4.07;;
36189;SDS011;22232;50.914;13.858;2023-04-03T07:07:17;13.52;;;3.50;;
36189;SDS011;22232;50.914;13.858;2023-04-03T07:09:44;12.20;;;3.30;;
36189;SDS011;22232;50.914;13.858;2023-04-03T07:12:13;10.95;;;4.55;;
36189;SDS011;22232;50.914;13.858;2023-04-03T07:14:42;11.55;;;3.78;;
36189;SDS011;22232;50.914;13.858;2023-04-03T07:17:09;15.95;;;4.20;;
36189;SDS011;22232;50.914;13.858;2023-04-03T07:19:37;10.88;;;4.63;;
36189;SDS011;22232;50.914;13.858;2023-04-03T07:22:05;10.25;;;4.18;;
36189;SDS011;22232;50.914;13.858;2023-04-03T07:24:32;10.05;;;4.38;;
36189;SDS011;22232;50.914;13.858;2023-04-03T07:27:00;11.05;;;3.72;;
36189;SDS011;22232;50.914;13.858;2023-04-03T07:29:29;11.15;;;4.25;;
36189;SDS011;22232;50.914;13.858;2023-04-03T07:31:57;14.43;;;4.15;;
36189;SDS011;22232;50.914;13.858;2023-04-03T07:34:25;11.63;;;4.15;;
36189;SDS011;22232;50.914;13.858;2023-04-03T07:36:52;10.43;;;4.35;;
36189;SDS011;22232;50.914;13.858;2023-04-03T07:39:20;10.90;;;3.45;;
36189;SDS011;22232;50.914;13.858;2023-04-03T07:41:48;8.15;;;3.85;;
36189;SDS011;22232;50.914;13.858;2023-04-03T07:44:15;10.82;;;4.60;;
36189;SDS011;22232;50.914;13.858;2023-04-03T07:46:43;9.80;;;3.60;;
36189;SDS011;22232;50.914;13.858;2023-04-03T07:49:11;6.75;;;3.50;;
36189;SDS011;22232;50.914;13.858;2023-04-03T07:51:38;9.68;;;4.00;;
36189;SDS011;22232;50.914;13.858;2023-04-03T07:54:06;8.95;;;3.65;;
36189;SDS011;22232;50.914;13.858;2023-04-03T07:56:34;10.20;;;3.72;;
36189;SDS011;22232;50.914;13.858;2023-04-03T07:59:02;12.98;;;4.50;;
36189;SDS011;22232;50.914;13.858;2023-04-03T08:01:30;12.43;;;3.88;;
36189;SDS011;22232;50.914;13.858;2023-04-03T08:03:59;7.07;;;3.30;;
36189;SDS011;22232;50.914;13.858;2023-04-03T08:06:27;8.05;;;3.30;;
36189;SDS011;22232;50.914;13.858;2023-04-03T08:09:13;9.20;;;4.47;;
36189;SDS011;22232;50.914;13.858;2023-04-03T08:11:42;11.15;;;4.70;;
36189;SDS011;22232;50.914;13.858;2023-04-03T08:14:11;6.82;;;4.03;;
36189;SDS011;22232;50.914;13.858;2023-04-03T08:16:44;12.95;;;3.67;;
36189;SDS011;22232;50.914;13.858;2023-04-03T08:19:14;6.45;;;3.75;;
36189;SDS011;22232;50.914;13.858;2023-04-03T08:21:55;12.48;;;4.82;;
36189;SDS011;22232;50.914;13.858;2023-04-03T08:24:25;11.83;;;4.60;;
36189;SDS011;22232;50.914;13.858;2023-04-03T08:26:52;9.35;;;3.70;;
36189;SDS011;22232;50.914;13.858;2023-04-03T08:29:20;8.90;;;3.60;;
36189;SDS011;22232;50.914;13.858;2023-04-03T08:31:48;10.07;;;3.78;;
36189;SDS011;22232;50.914;13.858;2023-04-03T08:34:17;8.43;;;3.13;;
36189;SDS011;22232;50.914;13.858;2023-04-03T08:36:46;7.68;;;3.25;;
36189;SDS011;22232;50.914;13.858;2023-04-03T08:39:13;9.85;;;3.53;;
36189;SDS011;22232;50.914;13.858;2023-04-03T08:41:42;9.82;;;3.38;;
36189;SDS011;22232;50.914;13.858;2023-04-03T08:47:02;8.18;;;3.20;;
36189;SDS011;22232;50.914;13.858;2023-04-03T08:52:05;8.10;;;3.63;;
36189;SDS011;22232;50.914;13.858;2023-04-03T08:57:17;12.48;;;3.63;;
36189;SDS011;22232;50.914;13.858;2023-04-03T08:59:48;7.43;;;2.78;;
36189;SDS011;22232;50.914;13.858;2023-04-03T09:02:23;7.93;;;2.80;;
36189;SDS011;22232;50.914;13.858;2023-04-03T09:04:55;11.23;;;3.72;;
36189;SDS011;22232;50.914;13.858;2023-04-03T09:07:35;10.48;;;2.83;;
36189;SDS011;22232;50.914;13.858;2023-04-03T09:10:26;5.05;;;2.53;;
36189;SDS011;22232;50.914;13.858;2023-04-03T09:13:03;7.22;;;2.78;;
36189;SDS011;22232;50.914;13.858;2023-04-03T09:15:37;7.13;;;2.70;;
36189;SDS011;22232;50.914;13.858;2023-04-03T09:18:11;6.70;;;3.08;;
36189;SDS011;22232;50.914;13.858;2023-04-03T09:23:44;10.75;;;3.25;;
36189;SDS011;22232;50.914;13.858;2023-04-03T09:26:18;9.95;;;3.15;;
36189;SDS011;22232;50.914;13.858;2023-04-03T09:29:21;8.10;;;2.97;;
36189;SDS011;22232;50.914;13.858;2023-04-03T09:31:59;7.32;;;2.63;;
36189;SDS011;22232;50.914;13.858;2023-04-03T09:34:32;8.68;;;2.80;;
36189;SDS011;22232;50.914;13.858;2023-04-03T09:37:03;10.68;;;2.88;;
36189;SDS011;22232;50.914;13.858;2023-04-03T09:39:50;9.23;;;2.50;;
36189;SDS011;22232;50.914;13.858;2023-04-03T09:42:21;11.15;;;3.13;;
36189;SDS011;22232;50.914;13.858;2023-04-03T09:44:55;5.68;;;2.40;;
36189;SDS011;22232;50.914;13.858;2023-04-03T09:52:41;7.03;;;2.45;;
36189;SDS011;22232;50.914;13.858;2023-04-03T09:57:46;5.68;;;2.05;;
36189;SDS011;22232;50.914;13.858;2023-04-03T10:00:20;7.53;;;2.60;;
36189;SDS011;22232;50.914;13.858;2023-04-03T10:02:51;12.80;;;2.47;;
36189;SDS011;22232;50.914;13.858;2023-04-03T10:10:45;5.35;;;2.20;;
36189;SDS011;22232;50.914;13.858;2023-04-03T10:13:18;6.63;;;2.33;;
36189;SDS011;22232;50.914;13.858;2023-04-03T10:15:55;7.18;;;2.05;;
36189;SDS011;22232;50.914;13.858;2023-04-03T10:24:25;4.20;;;2.05;;
36189;SDS011;22232;50.914;13.858;2023-04-03T10:38:19;6.30;;;1.63;;
36189;SDS011;22232;50.914;13.858;2023-04-03T10:46:37;7.18;;;2.08;;
36189;SDS011;22232;50.914;13.858;2023-04-03T10:49:11;6.80;;;1.65;;
36189;SDS011;22232;50.914;13.858;2023-04-03T10:52:24;5.13;;;1.35;;
36189;SDS011;22232;50.914;13.858;2023-04-03T10:58:01;5.00;;;1.50;;
36189;SDS011;22232;50.914;13.858;2023-04-03T11:00:35;7.22;;;1.90;;
36189;SDS011;22232;50.914;13.858;2023-04-03T11:03:12;6.32;;;1.95;;
36189;SDS011;22232;50.914;13.858;2023-04-03T11:05:50;5.82;;;1.75;;
36189;SDS011;22232;50.914;13.858;2023-04-03T11:11:03;5.13;;;1.60;;
36189;SDS011;22232;50.914;13.858;2023-04-03T11:16:07;3.25;;;1.50;;
36189;SDS011;22232;50.914;13.858;2023-04-03T11:18:38;3.03;;;1.50;;
36189;SDS011;22232;50.914;13.858;2023-04-03T11:21:51;7.90;;;1.60;;
36189;SDS011;22232;50.914;13.858;2023-04-03T11:24:05;5.40;;;1.20;;
36189;SDS011;22232;50.914;13.858;2023-04-03T11:26:44;3.33;;;1.20;;
36189;SDS011;22232;50.914;13.858;2023-04-03T11:29:13;2.90;;;1.42;;
36189;SDS011;22232;50.914;13.858;2023-04-03T11:32:05;4.68;;;1.30;;
36189;SDS011;22232;50.914;13.858;2023-04-03T11:34:51;3.15;;;1.30;;
36189;SDS011;22232;50.914;13.858;2023-04-03T11:37:31;5.07;;;1.60;;
36189;SDS011;22232;50.914;13.858;2023-04-03T11:42:47;3.42;;;1.13;;
36189;SDS011;22232;50.914;13.858;2023-04-03T11:45:36;4.90;;;1.52;;
36189;SDS011;22232;50.914;13.858;2023-04-03T11:50:51;3.92;;;1.38;;
36189;SDS011;22232;50.914;13.858;2023-04-03T11:55:58;5.10;;;1.50;;
36189;SDS011;22232;50.914;13.858;2023-04-03T11:58:28;4.77;;;1.27;;
36189;SDS011;22232;50.914;13.858;2023-04-03T12:01:04;8.40;;;1.70;;
36189;SDS011;22232;50.914;13.858;2023-04-03T12:08:45;5.00;;;1.23;;
36189;SDS011;22232;50.914;13.858;2023-04-03T12:11:15;6.38;;;1.60;;
36189;SDS011;22232;50.914;13.858;2023-04-03T12:16:25;4.07;;;1.33;;
36189;SDS011;22232;50.914;13.858;2023-04-03T12:19:01;5.10;;;1.60;;
36189;SDS011;22232;50.914;13.858;2023-04-03T12:26:31;3.25;;;1.20;;
36189;SDS011;22232;50.914;13.858;2023-04-03T12:32:06;3.65;;;1.25;;
36189;SDS011;22232;50.914;13.858;2023-04-03T12:46:53;3.75;;;1.38;;
36189;SDS011;22232;50.914;13.858;2023-04-03T12:49:38;2.75;;;1.40;;
36189;SDS011;22232;50.914;13.858;2023-04-03T12:54:48;3.47;;;1.23;;
36189;SDS011;22232;50.914;13.858;2023-04-03T12:57:17;3.55;;;1.50;;
36189;SDS011;22232;50.914;13.858;2023-04-03T12:59:47;4.60;;;1.27;;
36189;SDS011;22232;50.914;13.858;2023-04-03T13:04:52;6.20;;;1.00;;
36189;SDS011;22232;50.914;13.858;2023-04-03T13:07:37;4.30;;;1.30;;
36189;SDS011;22232;50.914;13.858;2023-04-03T13:12:44;6.78;;;1.70;;
36189;SDS011;22232;50.914;13.858;2023-04-03T13:15:19;3.78;;;1.60;;
36189;SDS011;22232;50.914;13.858;2023-04-03T13:17:57;8.35;;;1.58;;
36189;SDS011;22232;50.914;13.858;2023-04-03T13:20:29;3.85;;;2.03;;
36189;SDS011;22232;50.914;13.858;2023-04-03T13:23:00;2.67;;;1.33;;
36189;SDS011;22232;50.914;13.858;2023-04-03T13:25:32;4.00;;;1.70;;
36189;SDS011;22232;50.914;13.858;2023-04-03T13:28:02;2.97;;;1.40;;
36189;SDS011;22232;50.914;13.858;2023-04-03T13:30:41;5.40;;;1.50;;
36189;SDS011;22232;50.914;13.858;2023-04-03T13:33:37;4.80;;;1.50;;
36189;SDS011;22232;50.914;13.858;2023-04-03T13:36:27;3.33;;;1.23;;
36189;SDS011;22232;50.914;13.858;2023-04-03T13:41:43;6.40;;;1.63;;
36189;SDS011;22232;50.914;13.858;2023-04-03T13:46:54;3.75;;;1.30;;
36189;SDS011;22232;50.914;13.858;2023-04-03T13:49:43;6.40;;;1.60;;
36189;SDS011;22232;50.914;13.858;2023-04-03T13:52:27;5.43;;;1.80;;
36189;SDS011;22232;50.914;13.858;2023-04-03T13:54:59;3.53;;;2.13;;
36189;SDS011;22232;50.914;13.858;2023-04-03T13:57:33;2.83;;;1.10;;
36189;SDS011;22232;50.914;13.858;2023-04-03T14:00:18;5.05;;;1.60;;
36189;SDS011;22232;50.914;13.858;2023-04-03T14:03:26;5.47;;;1.80;;
36189;SDS011;22232;50.914;13.858;2023-04-03T14:05:55;6.30;;;2.20;;
36189;SDS011;22232;50.914;13.858;2023-04-03T14:08:22;6.60;;;1.55;;
36189;SDS011;22232;50.914;13.858;2023-04-03T14:11:10;4.50;;;1.60;;
36189;SDS011;22232;50.914;13.858;2023-04-03T14:13:41;5.15;;;1.80;;
36189;SDS011;22232;50.914;13.858;2023-04-03T14:16:12;4.30;;;1.35;;
36189;SDS011;22232;50.914;13.858;2023-04-03T14:18:43;7.50;;;1.70;;
36189;SDS011;22232;50.914;13.858;2023-04-03T14:21:12;5.45;;;1.90;;
36189;SDS011;22232;50.914;13.858;2023-04-03T14:23:42;3.17;;;1.33;;
36189;SDS011;22232;50.914;13.858;2023-04-03T14:26:13;7.65;;;1.83;;
36189;SDS011;22232;50.914;13.858;2023-04-03T14:28:45;2.67;;;1.50;;
36189;SDS011;22232;50.914;13.858;2023-04-03T14:31:14;3.00;;;1.45;;
36189;SDS011;22232;50.914;13.858;2023-04-03T14:33:43;4.78;;;1.50;;
36189;SDS011;22232;50.914;13.858;2023-04-03T14:36:14;5.93;;;1.63;;
36189;SDS011;22232;50.914;13.858;2023-04-03T14:38:44;6.22;;;1.52;;
36189;SDS011;22232;50.914;13.858;2023-04-03T14:41:13;3.85;;;1.38;;
36189;SDS011;22232;50.914;13.858;2023-04-03T14:43:43;3.97;;;1.73;;
36189;SDS011;22232;50.914;13.858;2023-04-03T14:46:16;3.65;;;1.35;;
36189;SDS011;22232;50.914;13.858;2023-04-03T14:48:56;6.50;;;2.33;;
36189;SDS011;22232;50.914;13.858;2023-04-03T14:51:24;7.32;;;1.80;;
36189;SDS011;22232;50.914;13.858;2023-04-03T14:53:52;7.80;;;2.15;;
36189;SDS011;22232;50.914;13.858;2023-04-03T14:56:24;4.28;;;1.50;;
36189;SDS011;22232;50.914;13.858;2023-04-03T14:58:58;4.25;;;1.77;;
36189;SDS011;22232;50.914;13.858;2023-04-03T15:01:30;4.63;;;1.77;;
36189;SDS011;22232;50.914;13.858;2023-04-03T15:03:57;4.82;;;1.42;;
36189;SDS011;22232;50.914;13.858;2023-04-03T15:06:25;5.75;;;1.85;;
36189;SDS011;22232;50.914;13.858;2023-04-03T15:08:53;7.35;;;2.25;;
36189;SDS011;22232;50.914;13.858;2023-04-03T15:11:20;4.85;;;1.77;;
36189;SDS011;22232;50.914;13.858;2023-04-03T15:13:48;7.75;;;1.95;;
36189;SDS011;22232;50.914;13.858;2023-04-03T15:16:17;5.43;;;1.80;;
36189;SDS011;22232;50.914;13.858;2023-04-03T15:18:46;5.75;;;1.90;;
36189;SDS011;22232;50.914;13.858;2023-04-03T15:21:14;4.28;;;1.63;;
36189;SDS011;22232;50.914;13.858;2023-04-03T15:23:42;3.05;;;1.60;;
36189;SDS011;22232;50.914;13.858;2023-04-03T15:26:10;7.50;;;1.52;;
36189;SDS011;22232;50.914;13.858;2023-04-03T15:28:39;6.25;;;1.65;;
36189;SDS011;22232;50.914;13.858;2023-04-03T15:31:09;4.65;;;1.52;;
36189;SDS011;22232;50.914;13.858;2023-04-03T15:33:37;3.53;;;1.90;;
36189;SDS011;22232;50.914;13.858;2023-04-03T15:36:05;4.30;;;1.65;;
36189;SDS011;22232;50.914;13.858;2023-04-03T15:38:43;3.95;;;1.40;;
36189;SDS011;22232;50.914;13.858;2023-04-03T15:41:10;5.32;;;1.70;;
36189;SDS011;22232;50.914;13.858;2023-04-03T15:43:39;2.17;;;1.40;;
36189;SDS011;22232;50.914;13.858;2023-04-03T15:46:06;4.70;;;1.70;;
36189;SDS011;22232;50.914;13.858;2023-04-03T15:48:35;2.65;;;1.30;;
36189;SDS011;22232;50.914;13.858;2023-04-03T15:51:03;6.70;;;1.30;;
36189;SDS011;22232;50.914;13.858;2023-04-03T15:53:33;3.70;;;1.75;;
36189;SDS011;22232;50.914;13.858;2023-04-03T15:56:00;6.57;;;1.33;;
36189;SDS011;22232;50.914;13.858;2023-04-03T15:58:28;5.18;;;1.40;;
36189;SDS011;22232;50.914;13.858;2023-04-03T16:00:56;5.63;;;1.67;;
36189;SDS011;22232;50.914;13.858;2023-04-03T16:03:23;5.88;;;1.48;;
36189;SDS011;22232;50.914;13.858;2023-04-03T16:05:51;4.38;;;1.30;;
36189;SDS011;22232;50.914;13.858;2023-04-03T16:08:19;3.83;;;1.73;;
36189;SDS011;22232;50.914;13.858;2023-04-03T16:10:47;4.80;;;1.70;;
36189;SDS011;22232;50.914;13.858;2023-04-03T16:13:15;5.38;;;1.35;;
36189;SDS011;22232;50.914;13.858;2023-04-03T16:15:42;4.20;;;1.42;;
36189;SDS011;22232;50.914;13.858;2023-04-03T16:18:10;3.28;;;1.48;;
36189;SDS011;22232;50.914;13.858;2023-04-03T16:20:37;4.80;;;1.60;;
36189;SDS011;22232;50.914;13.858;2023-04-03T16:23:06;5.65;;;1.58;;
36189;SDS011;22232;50.914;13.858;2023-04-03T16:25:34;3.00;;;1.48;;
36189;SDS011;22232;50.914;13.858;2023-04-03T16:28:01;3.08;;;1.45;;
36189;SDS011;22232;50.914;13.858;2023-04-03T16:30:29;3.22;;;1.58;;
36189;SDS011;22232;50.914;13.858;2023-04-03T16:32:57;3.67;;;1.50;;
36189;SDS011;22232;50.914;13.858;2023-04-03T16:35:25;7.68;;;1.48;;
36189;SDS011;22232;50.914;13.858;2023-04-03T16:37:52;6.35;;;1.80;;
36189;SDS011;22232;50.914;13.858;2023-04-03T16:40:20;3.15;;;1.40;;
36189;SDS011;22232;50.914;13.858;2023-04-03T16:42:47;8.43;;;2.33;;
36189;SDS011;22232;50.914;13.858;2023-04-03T16:45:15;4.65;;;1.98;;